createdAt,value
2023-01-20T00:01:55.316Z,5.23
2023-01-20T00:04:21.671Z,5.50
2023-01-20T00:06:48.145Z,5.37
2023-01-20T00:09:16.704Z,5.20
2023-01-20T00:11:43.146Z,4.57
2023-01-20T00:14:09.633Z,5.20
2023-01-20T00:16:36.232Z,4.13
2023-01-20T00:19:02.825Z,4.53
2023-01-20T00:21:29.328Z,4.80
2023-01-20T00:23:56.044Z,5.30
2023-01-20T00:26:24.250Z,5.07
2023-01-20T00:28:53.043Z,5.77
2023-01-20T00:31:19.416Z,5.07
2023-01-20T00:33:46.588Z,6.27
2023-01-20T00:36:14.517Z,8.13
2023-01-20T00:38:40.906Z,8.07
2023-01-20T00:41:07.559Z,7.20
2023-01-20T00:43:34.093Z,6.37
2023-01-20T00:46:00.409Z,8.70
2023-01-20T00:48:26.981Z,8.43
2023-01-20T00:50:53.319Z,9.63
2023-01-20T00:53:19.592Z,9.40
2023-01-20T00:55:45.950Z,7.73
2023-01-20T00:58:12.284Z,8.27
2023-01-20T01:00:38.656Z,8.57
2023-01-20T01:03:05.663Z,9.23
2023-01-20T01:05:32.631Z,10.23
2023-01-20T01:07:59.059Z,9.37
2023-01-20T01:10:25.668Z,9.50
2023-01-20T01:12:51.998Z,8.83
2023-01-20T01:15:18.480Z,8.27
2023-01-20T01:17:45.001Z,8.97
2023-01-20T01:20:12.571Z,8.10
2023-01-20T01:22:38.894Z,8.73
2023-01-20T01:25:05.640Z,8.90
2023-01-20T01:27:32.015Z,8.87
2023-01-20T01:29:58.381Z,8.07
2023-01-20T01:32:24.954Z,9.07
2023-01-20T01:34:51.343Z,8.57
2023-01-20T01:37:17.675Z,8.70
2023-01-20T01:39:43.985Z,8.87
2023-01-20T01:42:13.679Z,8.20
2023-01-20T01:44:59.929Z,8.47
2023-01-20T01:47:26.305Z,9.07
2023-01-20T01:49:52.614Z,9.17
2023-01-20T01:52:20.847Z,11.57
2023-01-20T01:54:49.132Z,9.93
2023-01-20T01:57:15.440Z,10.87
2023-01-20T01:59:43.830Z,10.60
2023-01-20T02:02:10.199Z,9.87
2023-01-20T02:04:38.902Z,10.83
2023-01-20T02:07:08.021Z,9.70
2023-01-20T02:09:34.752Z,10.87
2023-01-20T02:12:02.866Z,10.47
2023-01-20T02:14:41.407Z,9.47
2023-01-20T02:17:14.852Z,10.23
2023-01-20T02:20:00.113Z,10.40
2023-01-20T02:22:45.286Z,10.57
2023-01-20T02:25:17.732Z,10.47
2023-01-20T02:28:02.794Z,9.63
2023-01-20T02:30:35.390Z,10.50
2023-01-20T02:33:10.869Z,10.77
2023-01-20T02:35:37.175Z,10.07
2023-01-20T02:38:15.883Z,10.07
2023-01-20T02:40:48.168Z,9.13
2023-01-20T02:43:14.497Z,9.80
2023-01-20T02:45:48.221Z,9.27
2023-01-20T02:48:24.100Z,9.37
2023-01-20T02:51:01.627Z,10.07
2023-01-20T02:53:31.265Z,9.77
2023-01-20T02:55:57.635Z,9.43
2023-01-20T02:58:27.567Z,10.63
2023-01-20T03:00:55.730Z,9.77
2023-01-20T03:03:25.118Z,9.73
2023-01-20T03:05:53.562Z,9.00
2023-01-20T03:08:20.870Z,8.77
2023-01-20T03:10:47.827Z,9.30
2023-01-20T03:13:14.078Z,8.87
2023-01-20T03:15:50.028Z,8.50
2023-01-20T03:18:16.410Z,8.33
2023-01-20T03:20:42.763Z,8.53
2023-01-20T03:23:09.061Z,7.87
2023-01-20T03:25:35.997Z,8.37
2023-01-20T03:28:02.965Z,8.60
2023-01-20T03:30:29.393Z,8.43
2023-01-20T03:32:56.046Z,8.67
2023-01-20T03:35:22.906Z,7.50
2023-01-20T03:37:49.356Z,8.57
2023-01-20T03:40:16.135Z,8.20
2023-01-20T03:42:56.127Z,8.73
2023-01-20T03:45:33.549Z,7.20
2023-01-20T03:48:03.744Z,8.10
2023-01-20T03:50:42.824Z,7.70
2023-01-20T03:53:27.953Z,7.17
2023-01-20T03:55:57.293Z,7.63
2023-01-20T03:58:34.239Z,7.77
2023-01-20T04:01:03.796Z,7.23
2023-01-20T04:03:45.284Z,7.00
2023-01-20T04:06:12.679Z,8.03
2023-01-20T04:08:45.901Z,7.33
2023-01-20T04:11:12.475Z,7.10
2023-01-20T04:13:38.880Z,7.97
2023-01-20T04:16:09.677Z,7.27
2023-01-20T04:18:39.997Z,7.57
2023-01-20T04:21:06.696Z,7.53
2023-01-20T04:23:35.380Z,7.17
2023-01-20T04:26:01.789Z,6.43
2023-01-20T04:28:28.328Z,6.43
2023-01-20T04:30:54.772Z,6.70
2023-01-20T04:33:21.285Z,5.90
2023-01-20T04:35:47.591Z,6.73
2023-01-20T04:38:14.024Z,6.53
2023-01-20T04:40:40.399Z,7.23
2023-01-20T04:43:06.787Z,5.63
2023-01-20T04:45:36.103Z,7.17
2023-01-20T04:48:05.568Z,5.90
2023-01-20T04:50:31.851Z,7.83
2023-01-20T04:53:00.619Z,7.57
2023-01-20T04:55:27.663Z,7.13
2023-01-20T04:57:54.100Z,8.10
2023-01-20T05:00:20.651Z,7.20
2023-01-20T05:02:47.185Z,8.73
2023-01-20T05:05:13.927Z,9.30
2023-01-20T05:07:40.513Z,8.30
2023-01-20T05:10:07.356Z,9.17
2023-01-20T05:12:33.712Z,8.20
2023-01-20T05:15:00.045Z,9.13
2023-01-20T05:17:26.437Z,9.87
2023-01-20T05:19:52.769Z,9.10
2023-01-20T05:22:19.144Z,9.60
2023-01-20T05:24:45.532Z,8.13
2023-01-20T05:27:11.861Z,9.63
2023-01-20T05:29:38.260Z,10.07
2023-01-20T05:32:04.730Z,9.07
2023-01-20T05:34:31.022Z,8.67
2023-01-20T05:36:57.582Z,9.47
2023-01-20T05:39:23.977Z,8.20
2023-01-20T05:41:50.665Z,7.03
2023-01-20T05:44:17.149Z,8.00
2023-01-20T05:46:43.543Z,7.30
2023-01-20T05:49:11.164Z,7.30
2023-01-20T05:51:37.559Z,6.77
2023-01-20T05:54:03.999Z,6.83
2023-01-20T05:56:30.313Z,7.20
2023-01-20T05:58:56.690Z,6.33
2023-01-20T06:01:23.456Z,7.90
2023-01-20T06:03:49.866Z,7.00
2023-01-20T06:06:18.322Z,7.47
2023-01-20T06:08:45.281Z,6.80
2023-01-20T06:11:12.275Z,8.90
2023-01-20T06:13:39.638Z,9.03
2023-01-20T06:16:07.423Z,8.57
2023-01-20T06:18:34.271Z,9.37
2023-01-20T06:21:00.698Z,9.07
2023-01-20T06:23:27.326Z,8.03
2023-01-20T06:26:04.699Z,8.50
2023-01-20T06:28:32.909Z,7.53
2023-01-20T06:31:02.218Z,8.17
2023-01-20T06:33:28.616Z,8.70
2023-01-20T06:35:55.979Z,8.43
2023-01-20T06:38:23.103Z,8.23
2023-01-20T06:40:49.528Z,8.40
2023-01-20T06:43:15.821Z,7.60
2023-01-20T06:45:42.245Z,8.17
2023-01-20T06:48:08.562Z,8.47
2023-01-20T06:50:34.932Z,8.43
2023-01-20T06:53:01.438Z,8.70
2023-01-20T06:55:27.874Z,8.50
2023-01-20T06:57:54.270Z,8.27
2023-01-20T07:00:20.830Z,7.93
2023-01-20T07:02:48.428Z,9.00
2023-01-20T07:05:15.176Z,8.20
2023-01-20T07:07:45.724Z,6.57
2023-01-20T07:10:12.761Z,8.73
2023-01-20T07:12:39.074Z,7.43
2023-01-20T07:15:05.629Z,7.90
2023-01-20T07:17:31.915Z,7.47
2023-01-20T07:19:58.229Z,7.60
2023-01-20T07:22:24.602Z,8.40
2023-01-20T07:24:50.917Z,7.43
2023-01-20T07:27:17.296Z,9.33
2023-01-20T07:29:44.017Z,7.57
2023-01-20T07:32:10.510Z,9.37
2023-01-20T07:34:37.895Z,9.70
2023-01-20T07:37:04.317Z,8.33
2023-01-20T07:39:30.670Z,9.63
2023-01-20T07:41:56.984Z,8.37
2023-01-20T07:44:23.261Z,8.50
2023-01-20T07:46:51.648Z,8.70
2023-01-20T07:49:17.989Z,11.03
2023-01-20T07:51:44.326Z,9.57
2023-01-20T07:54:11.528Z,8.60
2023-01-20T07:56:37.839Z,9.40
2023-01-20T07:59:04.328Z,7.93
2023-01-20T08:01:31.578Z,9.33
2023-01-20T08:04:00.580Z,9.13
2023-01-20T08:06:27.209Z,8.53
2023-01-20T08:08:53.800Z,8.97
2023-01-20T08:11:20.560Z,8.77
2023-01-20T08:13:47.119Z,9.40
2023-01-20T08:16:14.634Z,7.10
2023-01-20T08:18:42.346Z,6.93
2023-01-20T08:21:16.144Z,7.23
2023-01-20T08:23:42.464Z,7.20
2023-01-20T08:26:08.767Z,6.97
2023-01-20T08:28:35.772Z,5.00
2023-01-20T08:31:06.312Z,5.03
2023-01-20T08:33:32.829Z,5.63
2023-01-20T08:36:06.653Z,6.90
2023-01-20T08:38:33.230Z,5.53
2023-01-20T08:40:59.751Z,6.93
2023-01-20T08:43:26.325Z,6.47
2023-01-20T08:46:02.190Z,6.97
2023-01-20T08:48:28.575Z,5.53
2023-01-20T08:50:54.850Z,6.07
2023-01-20T08:53:22.228Z,4.83
2023-01-20T08:55:58.364Z,4.33
2023-01-20T08:58:25.544Z,4.67
2023-01-20T09:00:52.338Z,3.90
2023-01-20T09:03:18.719Z,4.40
2023-01-20T09:05:45.193Z,5.10
2023-01-20T09:08:11.758Z,4.07
2023-01-20T09:10:38.112Z,4.60
2023-01-20T09:13:04.602Z,3.87
2023-01-20T09:15:31.061Z,4.07
2023-01-20T09:17:58.887Z,3.87
2023-01-20T09:20:27.028Z,4.30
2023-01-20T09:22:53.328Z,3.83
2023-01-20T09:25:21.023Z,4.00
2023-01-20T09:27:47.363Z,3.80
2023-01-20T09:30:13.738Z,4.20
2023-01-20T09:32:40.154Z,3.47
2023-01-20T09:35:06.936Z,4.57
2023-01-20T09:37:51.689Z,4.30
2023-01-20T09:40:43.866Z,4.83
2023-01-20T09:43:46.422Z,4.70
2023-01-20T09:46:15.583Z,4.37
2023-01-20T09:49:09.817Z,4.03
2023-01-20T09:52:19.570Z,4.63
2023-01-20T09:54:49.379Z,4.70
2023-01-20T09:57:18.357Z,5.43
2023-01-20T10:00:00.338Z,4.73
2023-01-20T10:02:29.563Z,4.57
2023-01-20T10:04:58.969Z,4.40
2023-01-20T10:07:38.991Z,4.97
2023-01-20T10:10:17.916Z,5.30
2023-01-20T10:12:47.890Z,5.97
2023-01-20T10:15:20.508Z,5.33
2023-01-20T10:17:55.931Z,6.07
2023-01-20T10:20:31.455Z,6.13
2023-01-20T10:23:04.871Z,7.23
2023-01-20T10:25:38.603Z,7.93
2023-01-20T10:28:09.930Z,8.43
2023-01-20T10:30:36.764Z,8.03
2023-01-20T10:33:12.259Z,7.37
2023-01-20T10:35:40.966Z,10.03
2023-01-20T10:38:09.140Z,10.43
2023-01-20T10:40:42.167Z,10.33
2023-01-20T10:43:13.124Z,12.53
2023-01-20T10:45:58.077Z,13.33
2023-01-20T10:48:27.444Z,13.97
2023-01-20T10:51:00.162Z,13.03
2023-01-20T10:53:34.036Z,13.30
2023-01-20T10:56:24.052Z,13.27
2023-01-20T10:58:50.419Z,13.63
2023-01-20T11:01:19.055Z,14.03
2023-01-20T11:03:47.519Z,13.77
2023-01-20T11:06:21.701Z,11.83
2023-01-20T11:08:49.343Z,12.43
2023-01-20T11:11:17.745Z,12.20
2023-01-20T11:13:44.145Z,11.20
2023-01-20T11:16:18.782Z,7.90
2023-01-20T11:18:55.326Z,14.40
2023-01-20T11:21:23.583Z,12.37
2023-01-20T11:23:55.797Z,13.73
2023-01-20T11:26:22.329Z,12.73
2023-01-20T11:28:48.679Z,11.97
2023-01-20T11:31:15.464Z,14.47
2023-01-20T11:33:54.615Z,12.77
2023-01-20T11:36:24.113Z,12.43
2023-01-20T11:38:50.756Z,11.50
2023-01-20T11:41:21.856Z,11.43
2023-01-20T11:43:49.320Z,10.27
2023-01-20T11:46:16.673Z,6.93
2023-01-20T11:48:43.149Z,8.83
2023-01-20T11:51:19.060Z,11.27
2023-01-20T11:53:46.893Z,12.90
2023-01-20T11:56:18.669Z,10.80
2023-01-20T11:59:11.175Z,12.13
2023-01-20T12:01:51.459Z,15.43
2023-01-20T12:04:17.946Z,13.40
2023-01-20T12:06:55.859Z,13.67
2023-01-20T12:09:25.745Z,12.43
2023-01-20T12:11:55.461Z,12.70
2023-01-20T12:14:24.934Z,11.57
2023-01-20T12:16:58.733Z,11.30
2023-01-20T12:19:37.121Z,11.37
2023-01-20T12:22:09.594Z,11.27
2023-01-20T12:25:10.211Z,10.63
2023-01-20T12:27:45.256Z,11.00
2023-01-20T12:30:31.971Z,12.10
2023-01-20T12:32:58.314Z,10.60
2023-01-20T12:35:27.583Z,11.23
2023-01-20T12:38:01.727Z,10.03
2023-01-20T12:40:46.511Z,10.83
2023-01-20T12:43:12.775Z,11.03
2023-01-20T12:45:59.499Z,10.80
2023-01-20T12:48:31.368Z,11.23
2023-01-20T12:51:03.412Z,10.93
2023-01-20T12:53:39.220Z,10.90
2023-01-20T12:56:05.592Z,11.33
2023-01-20T12:58:32.034Z,10.70
2023-01-20T13:01:09.078Z,12.30
2023-01-20T13:03:55.305Z,11.20
2023-01-20T13:06:40.616Z,10.23
2023-01-20T13:09:10.005Z,10.33
2023-01-20T13:11:36.293Z,10.17
2023-01-20T13:14:14.319Z,10.37
2023-01-20T13:16:53.567Z,11.20
2023-01-20T13:19:26.662Z,9.90
2023-01-20T13:22:07.353Z,11.50
2023-01-20T13:24:34.612Z,9.67
2023-01-20T13:27:01.652Z,9.03
2023-01-20T13:29:37.148Z,10.00
2023-01-20T13:32:04.492Z,9.10
2023-01-20T13:34:31.876Z,9.70
2023-01-20T13:37:04.442Z,8.40
2023-01-20T13:39:40.581Z,8.40
2023-01-20T13:42:25.846Z,8.07
2023-01-20T13:45:10.934Z,8.80
2023-01-20T13:47:59.399Z,8.30
2023-01-20T13:50:35.129Z,8.10
2023-01-20T13:53:02.145Z,7.93
2023-01-20T13:55:28.612Z,8.80
2023-01-20T13:57:54.933Z,8.40
2023-01-20T14:00:21.975Z,8.30
2023-01-20T14:02:49.649Z,8.33
2023-01-20T14:05:19.693Z,7.47
2023-01-20T14:07:46.018Z,7.27
2023-01-20T14:10:12.690Z,7.83
2023-01-20T14:12:42.161Z,7.37
2023-01-20T14:15:22.561Z,8.13
2023-01-20T14:17:59.024Z,9.07
2023-01-20T14:20:26.720Z,10.30
2023-01-20T14:22:53.209Z,10.47
2023-01-20T14:25:24.638Z,9.60
2023-01-20T14:27:51.299Z,10.70
2023-01-20T14:30:25.143Z,10.47
2023-01-20T14:32:52.008Z,8.80
2023-01-20T14:35:28.084Z,7.47
2023-01-20T14:37:54.491Z,8.67
2023-01-20T14:40:25.994Z,9.80
2023-01-20T14:42:59.133Z,9.93
2023-01-20T14:45:26.665Z,7.00
2023-01-20T14:47:53.095Z,7.97
2023-01-20T14:50:20.220Z,8.10
2023-01-20T14:52:47.486Z,8.07
2023-01-20T14:55:49.184Z,8.27
2023-01-20T14:58:16.712Z,8.33
2023-01-20T15:00:44.277Z,8.67
2023-01-20T15:03:24.813Z,8.50
2023-01-20T15:05:54.154Z,8.03
2023-01-20T15:08:32.766Z,6.37
2023-01-20T15:11:14.754Z,5.10
2023-01-20T15:14:02.079Z,5.73
2023-01-20T15:16:29.273Z,6.93
2023-01-20T15:19:18.299Z,5.47
2023-01-20T15:21:48.918Z,5.87
2023-01-20T15:24:16.490Z,6.97
2023-01-20T15:26:43.409Z,8.03
2023-01-20T15:29:19.673Z,8.97
2023-01-20T15:31:46.130Z,8.00
2023-01-20T15:34:12.542Z,9.07
2023-01-20T15:36:41.550Z,9.27
2023-01-20T15:39:11.307Z,8.37
2023-01-20T15:41:37.707Z,11.20
2023-01-20T15:44:04.181Z,12.03
2023-01-20T15:46:30.604Z,11.47
2023-01-20T15:48:56.926Z,11.43
2023-01-20T15:51:23.324Z,11.17
2023-01-20T15:53:49.716Z,11.63
2023-01-20T15:56:21.332Z,14.40
2023-01-20T15:58:47.755Z,13.90
2023-01-20T16:01:15.612Z,12.13
2023-01-20T16:03:42.316Z,11.67
2023-01-20T16:06:18.549Z,12.60
2023-01-20T16:08:46.387Z,12.77
2023-01-20T16:11:13.540Z,12.93
2023-01-20T16:13:40.295Z,12.43
2023-01-20T16:16:16.924Z,13.30
2023-01-20T16:18:43.850Z,14.50
2023-01-20T16:21:11.471Z,15.20
2023-01-20T16:23:38.002Z,12.63
2023-01-20T16:26:16.453Z,15.23
2023-01-20T16:28:42.827Z,17.07
2023-01-20T16:31:11.096Z,14.83
2023-01-20T16:33:37.669Z,13.90
2023-01-20T16:36:06.440Z,14.23
2023-01-20T16:38:32.803Z,12.30
2023-01-20T16:41:17.271Z,13.13
2023-01-20T16:43:43.836Z,12.33
2023-01-20T16:46:20.294Z,13.93
2023-01-20T16:48:46.891Z,12.57
2023-01-20T16:51:17.381Z,12.73
2023-01-20T16:53:44.155Z,11.20
2023-01-20T16:56:15.184Z,14.33
2023-01-20T16:58:41.959Z,13.73
2023-01-20T17:01:12.204Z,11.07
2023-01-20T17:03:39.301Z,13.70
2023-01-20T17:06:12.626Z,12.03
2023-01-20T17:08:42.605Z,13.10
2023-01-20T17:11:08.904Z,12.70
2023-01-20T17:13:35.221Z,11.23
2023-01-20T17:16:02.820Z,12.87
2023-01-20T17:18:29.266Z,13.77
2023-01-20T17:20:55.545Z,13.67
2023-01-20T17:23:21.888Z,13.63
2023-01-20T17:25:48.468Z,14.40
2023-01-20T17:28:14.792Z,12.43
2023-01-20T17:30:41.152Z,11.60
2023-01-20T17:33:07.454Z,13.93
2023-01-20T17:35:33.903Z,12.10
2023-01-20T17:38:00.405Z,11.87
2023-01-20T17:40:26.831Z,14.73
2023-01-20T17:42:53.554Z,14.00
2023-01-20T17:45:19.868Z,14.50
2023-01-20T17:47:49.440Z,12.07
2023-01-20T17:50:16.143Z,13.33
2023-01-20T17:52:42.665Z,12.93
2023-01-20T17:55:09.314Z,13.30
2023-01-20T17:57:35.625Z,11.80
2023-01-20T18:00:02.071Z,12.87
2023-01-20T18:02:28.492Z,13.77
2023-01-20T18:04:54.889Z,12.43
2023-01-20T18:07:21.279Z,9.90
2023-01-20T18:09:47.602Z,11.70
2023-01-20T18:12:14.787Z,11.83
2023-01-20T18:14:41.391Z,10.37
2023-01-20T18:17:07.941Z,10.33
2023-01-20T18:19:34.284Z,12.03
2023-01-20T18:22:01.915Z,11.40
2023-01-20T18:24:28.196Z,10.77
2023-01-20T18:26:56.283Z,11.77
2023-01-20T18:29:24.180Z,10.83
2023-01-20T18:31:51.650Z,11.10
2023-01-20T18:34:18.128Z,11.13
2023-01-20T18:36:46.058Z,9.53
2023-01-20T18:39:13.753Z,9.70
2023-01-20T18:41:40.233Z,10.27
2023-01-20T18:44:06.778Z,8.20
2023-01-20T18:46:33.194Z,9.47
2023-01-20T18:49:00.107Z,10.00
2023-01-20T18:51:28.152Z,10.67
2023-01-20T18:53:59.292Z,9.87
2023-01-20T18:56:27.142Z,8.83
2023-01-20T18:58:54.078Z,9.63
2023-01-20T19:01:21.790Z,10.03
2023-01-20T19:03:49.425Z,11.37
2023-01-20T19:06:19.993Z,10.77
2023-01-20T19:08:48.216Z,8.70
2023-01-20T19:11:22.534Z,11.27
2023-01-20T19:13:50.014Z,11.27
2023-01-20T19:16:17.398Z,10.10
2023-01-20T19:18:44.725Z,11.23
2023-01-20T19:21:12.508Z,11.03
2023-01-20T19:23:40.972Z,11.97
2023-01-20T19:26:09.012Z,12.00
2023-01-20T19:28:35.525Z,12.93
2023-01-20T19:31:05.941Z,10.17
2023-01-20T19:33:33.872Z,10.67
2023-01-20T19:36:02.254Z,11.17
2023-01-20T19:38:28.830Z,11.33
2023-01-20T19:40:55.122Z,12.60
2023-01-20T19:43:21.581Z,12.20
2023-01-20T19:45:47.953Z,12.57
2023-01-20T19:48:14.288Z,13.67
2023-01-20T19:50:41.838Z,13.20
2023-01-20T19:53:08.178Z,14.20
2023-01-20T19:55:34.471Z,14.63
2023-01-20T19:58:00.912Z,12.97
2023-01-20T20:00:27.256Z,14.13
2023-01-20T20:02:54.526Z,15.80
2023-01-20T20:05:20.983Z,15.07
2023-01-20T20:07:47.414Z,14.17
2023-01-20T20:10:14.110Z,15.00
2023-01-20T20:12:41.041Z,14.83
2023-01-20T20:15:07.486Z,15.87
2023-01-20T20:17:33.792Z,14.83
2023-01-20T20:20:00.105Z,16.47
2023-01-20T20:22:26.418Z,14.30
2023-01-20T20:24:52.815Z,14.83
2023-01-20T20:27:19.108Z,14.20
2023-01-20T20:29:47.588Z,15.67
2023-01-20T20:32:13.998Z,16.10
2023-01-20T20:34:40.276Z,16.53
2023-01-20T20:37:06.597Z,15.63
2023-01-20T20:39:32.980Z,13.70
2023-01-20T20:41:59.882Z,15.07
2023-01-20T20:44:26.361Z,16.03
2023-01-20T20:46:52.704Z,15.13
2023-01-20T20:49:19.163Z,15.43
2023-01-20T20:51:45.579Z,16.00
2023-01-20T20:54:15.261Z,15.17
2023-01-20T20:56:41.593Z,13.13
2023-01-20T20:59:08.572Z,14.83
2023-01-20T21:01:35.015Z,15.23
2023-01-20T21:04:01.871Z,14.23
2023-01-20T21:06:29.743Z,13.70
2023-01-20T21:08:56.115Z,15.67
2023-01-20T21:11:24.021Z,12.93
2023-01-20T21:13:50.411Z,14.17
2023-01-20T21:16:17.616Z,15.03
2023-01-20T21:18:43.953Z,14.50
2023-01-20T21:21:11.556Z,14.60
2023-01-20T21:23:38.393Z,12.80
2023-01-20T21:26:06.026Z,14.97
2023-01-20T21:28:34.286Z,16.17
2023-01-20T21:31:00.605Z,13.60
2023-01-20T21:33:27.062Z,14.07
2023-01-20T21:35:53.376Z,14.93
2023-01-20T21:38:19.691Z,12.87
2023-01-20T21:40:59.804Z,15.33
2023-01-20T21:43:52.552Z,14.13
2023-01-20T21:46:19.064Z,14.93
2023-01-20T21:49:04.390Z,14.20
2023-01-20T21:51:49.132Z,14.67
2023-01-20T21:54:16.095Z,15.93
2023-01-20T21:56:43.106Z,13.90
2023-01-20T21:59:09.859Z,14.77
2023-01-20T22:01:36.739Z,15.67
2023-01-20T22:04:03.421Z,14.30
2023-01-20T22:06:30.252Z,14.23
2023-01-20T22:08:58.475Z,14.33
2023-01-20T22:11:25.365Z,13.60
2023-01-20T22:13:55.822Z,15.90
2023-01-20T22:16:23.199Z,14.63
2023-01-20T22:18:49.660Z,14.70
2023-01-20T22:21:16.401Z,15.57
2023-01-20T22:23:42.861Z,15.43
2023-01-20T22:26:09.177Z,15.53
2023-01-20T22:28:39.693Z,16.20
2023-01-20T22:31:07.480Z,14.33
2023-01-20T22:33:34.491Z,16.40
2023-01-20T22:36:01.155Z,15.57
2023-01-20T22:38:27.514Z,15.17
2023-01-20T22:40:53.805Z,15.33
2023-01-20T22:43:20.458Z,15.10
2023-01-20T22:45:48.393Z,17.20
2023-01-20T22:48:14.953Z,14.77
2023-01-20T22:50:41.313Z,15.63
2023-01-20T22:53:07.610Z,16.37
2023-01-20T22:55:33.948Z,15.73
2023-01-20T22:58:00.450Z,16.00
2023-01-20T23:00:26.847Z,16.37
2023-01-20T23:02:53.151Z,14.70
2023-01-20T23:05:20.538Z,16.20
2023-01-20T23:07:46.940Z,16.73
2023-01-20T23:10:33.290Z,15.57
2023-01-20T23:12:59.704Z,16.57
2023-01-20T23:15:25.999Z,16.50
2023-01-20T23:17:52.294Z,16.13
2023-01-20T23:20:18.852Z,15.37
2023-01-20T23:22:45.281Z,15.43
2023-01-20T23:25:11.640Z,14.03
2023-01-20T23:27:38.329Z,17.13
2023-01-20T23:30:05.727Z,15.40
2023-01-20T23:32:32.037Z,16.17
2023-01-20T23:34:58.340Z,14.87
2023-01-20T23:37:24.719Z,15.00
2023-01-20T23:39:52.927Z,16.23
2023-01-20T23:42:19.263Z,15.17
2023-01-20T23:44:45.548Z,15.63
2023-01-20T23:47:12.039Z,16.67
2023-01-20T23:49:38.354Z,17.20
2023-01-20T23:52:07.004Z,17.17
2023-01-20T23:54:33.457Z,15.83
2023-01-20T23:56:59.873Z,16.50
2023-01-20T23:59:26.206Z,16.20
